sensor_id;sensor_type;location;lat;lon;timestamp;pressure;altitude;pressure_sealevel;temperature;humidity
55289;BME280;41154;45.394;5.734;2023-04-05T00:01:33;97147.59;;;2.50;100.00
55289;BME280;41154;45.394;5.734;2023-04-05T00:03:59;97148.69;;;2.28;100.00
55289;BME280;41154;45.394;5.734;2023-04-05T00:06:28;97152.41;;;1.84;100.00
55289;BME280;41154;45.394;5.734;2023-04-05T00:08:58;97152.88;;;1.87;100.00
55289;BME280;41154;45.394;5.734;2023-04-05T00:11:27;97166.88;;;2.09;100.00
55289;BME280;41154;45.394;5.734;2023-04-05T00:13:54;97165.25;;;2.08;100.00
55289;BME280;41154;45.394;5.734;2023-04-05T00:16:20;97155.34;;;1.89;100.00
55289;BME280;41154;45.394;5.734;2023-04-05T00:18:47;97157.53;;;1.85;100.00
55289;BME280;41154;45.394;5.734;2023-04-05T00:21:20;97161.00;;;1.86;100.00
55289;BME280;41154;45.394;5.734;2023-04-05T00:23:53;97155.94;;;1.91;100.00
55289;BME280;41154;45.394;5.734;2023-04-05T00:26:20;97163.50;;;1.94;100.00
55289;BME280;41154;45.394;5.734;2023-04-05T00:28:51;97153.13;;;1.92;100.00
55289;BME280;41154;45.394;5.734;2023-04-05T00:31:17;97154.03;;;1.78;100.00
55289;BME280;41154;45.394;5.734;2023-04-05T00:33:44;97151.94;;;1.95;100.00
55289;BME280;41154;45.394;5.734;2023-04-05T00:36:18;97155.59;;;1.72;100.00
55289;BME280;41154;45.394;5.734;2023-04-05T00:38:46;97156.28;;;1.81;100.00
55289;BME280;41154;45.394;5.734;2023-04-05T00:41:12;97150.81;;;1.83;100.00
55289;BME280;41154;45.394;5.734;2023-04-05T00:43:39;97145.38;;;1.69;100.00
55289;BME280;41154;45.394;5.734;2023-04-05T00:46:06;97138.41;;;1.61;100.00
55289;BME280;41154;45.394;5.734;2023-04-05T00:48:33;97143.63;;;1.55;100.00
55289;BME280;41154;45.394;5.734;2023-04-05T00:50:59;97140.66;;;1.43;100.00
55289;BME280;41154;45.394;5.734;2023-04-05T00:53:26;97137.19;;;1.21;100.00
55289;BME280;41154;45.394;5.734;2023-04-05T00:55:52;97120.06;;;1.17;100.00
55289;BME280;41154;45.394;5.734;2023-04-05T00:58:19;97125.44;;;1.23;100.00
55289;BME280;41154;45.394;5.734;2023-04-05T01:01:03;97124.22;;;1.26;100.00
55289;BME280;41154;45.394;5.734;2023-04-05T01:03:40;97125.72;;;1.14;100.00
55289;BME280;41154;45.394;5.734;2023-04-05T01:06:16;97129.38;;;1.13;100.00
55289;BME280;41154;45.394;5.734;2023-04-05T01:09:04;97128.84;;;1.39;100.00
55289;BME280;41154;45.394;5.734;2023-04-05T01:11:32;97126.81;;;1.63;100.00
55289;BME280;41154;45.394;5.734;2023-04-05T01:14:00;97129.41;;;1.56;100.00
55289;BME280;41154;45.394;5.734;2023-04-05T01:16:27;97131.28;;;1.62;100.00
55289;BME280;41154;45.394;5.734;2023-04-05T01:18:55;97131.91;;;1.21;100.00
55289;BME280;41154;45.394;5.734;2023-04-05T01:32:10;97123.81;;;1.07;100.00
55289;BME280;41154;45.394;5.734;2023-04-05T01:37:07;97117.97;;;1.12;100.00
55289;BME280;41154;45.394;5.734;2023-04-05T01:39:36;97122.50;;;0.97;100.00
55289;BME280;41154;45.394;5.734;2023-04-05T01:42:03;97117.03;;;0.98;100.00
55289;BME280;41154;45.394;5.734;2023-04-05T01:44:30;97113.75;;;1.33;100.00
55289;BME280;41154;45.394;5.734;2023-04-05T01:46:55;97116.81;;;1.36;100.00
55289;BME280;41154;45.394;5.734;2023-04-05T01:49:22;97124.31;;;0.96;100.00
55289;BME280;41154;45.394;5.734;2023-04-05T01:51:48;97122.84;;;1.08;100.00
55289;BME280;41154;45.394;5.734;2023-04-05T01:54:14;97122.72;;;1.17;100.00
55289;BME280;41154;45.394;5.734;2023-04-05T01:56:42;97125.16;;;0.97;100.00
55289;BME280;41154;45.394;5.734;2023-04-05T01:59:08;97113.75;;;0.96;100.00
55289;BME280;41154;45.394;5.734;2023-04-05T02:01:34;97126.22;;;1.02;100.00
55289;BME280;41154;45.394;5.734;2023-04-05T02:03:59;97117.13;;;1.27;100.00
55289;BME280;41154;45.394;5.734;2023-04-05T02:06:25;97122.59;;;1.25;100.00
55289;BME280;41154;45.394;5.734;2023-04-05T02:08:52;97109.66;;;1.30;100.00
55289;BME280;41154;45.394;5.734;2023-04-05T02:11:17;97110.41;;;1.24;100.00
55289;BME280;41154;45.394;5.734;2023-04-05T02:13:43;97116.69;;;1.44;100.00
55289;BME280;41154;45.394;5.734;2023-04-05T02:16:09;97112.91;;;1.32;100.00
55289;BME280;41154;45.394;5.734;2023-04-05T02:18:36;97117.03;;;1.20;100.00
55289;BME280;41154;45.394;5.734;2023-04-05T02:21:04;97114.31;;;0.92;100.00
55289;BME280;41154;45.394;5.734;2023-04-05T02:23:30;97117.44;;;0.80;100.00
55289;BME280;41154;45.394;5.734;2023-04-05T02:25:57;97116.63;;;0.80;100.00
55289;BME280;41154;45.394;5.734;2023-04-05T02:28:23;97124.81;;;0.70;100.00
55289;BME280;41154;45.394;5.734;2023-04-05T02:30:52;97117.25;;;0.67;100.00
55289;BME280;41154;45.394;5.734;2023-04-05T02:33:18;97122.03;;;0.57;100.00
55289;BME280;41154;45.394;5.734;2023-04-05T02:35:45;97132.41;;;0.58;100.00
55289;BME280;41154;45.394;5.734;2023-04-05T02:38:12;97135.63;;;0.90;100.00
55289;BME280;41154;45.394;5.734;2023-04-05T02:40:38;97142.00;;;0.81;100.00
55289;BME280;41154;45.394;5.734;2023-04-05T02:43:06;97137.94;;;0.78;100.00
55289;BME280;41154;45.394;5.734;2023-04-05T02:45:32;97128.00;;;0.65;100.00
55289;BME280;41154;45.394;5.734;2023-04-05T02:47:58;97120.00;;;0.74;100.00
55289;BME280;41154;45.394;5.734;2023-04-05T02:50:28;97123.34;;;0.82;100.00
55289;BME280;41154;45.394;5.734;2023-04-05T02:52:54;97114.06;;;0.86;100.00
55289;BME280;41154;45.394;5.734;2023-04-05T02:55:20;97113.06;;;1.09;100.00
55289;BME280;41154;45.394;5.734;2023-04-05T02:57:47;97115.66;;;1.02;100.00
55289;BME280;41154;45.394;5.734;2023-04-05T03:00:26;97128.13;;;0.42;100.00
55289;BME280;41154;45.394;5.734;2023-04-05T03:02:54;97133.19;;;0.14;100.00
55289;BME280;41154;45.394;5.734;2023-04-05T03:05:21;97133.56;;;0.11;100.00
55289;BME280;41154;45.394;5.734;2023-04-05T03:07:50;97125.84;;;0.24;100.00
55289;BME280;41154;45.394;5.734;2023-04-05T03:10:20;97122.56;;;0.22;100.00
55289;BME280;41154;45.394;5.734;2023-04-05T03:12:56;97141.59;;;0.17;100.00
55289;BME280;41154;45.394;5.734;2023-04-05T03:15:25;97139.06;;;0.39;100.00
55289;BME280;41154;45.394;5.734;2023-04-05T03:17:53;97145.59;;;0.43;100.00
55289;BME280;41154;45.394;5.734;2023-04-05T03:20:24;97134.75;;;0.53;100.00
55289;BME280;41154;45.394;5.734;2023-04-05T03:22:52;97138.03;;;0.40;100.00
55289;BME280;41154;45.394;5.734;2023-04-05T03:25:19;97141.41;;;0.34;100.00
55289;BME280;41154;45.394;5.734;2023-04-05T03:27:47;97144.16;;;0.41;100.00
55289;BME280;41154;45.394;5.734;2023-04-05T03:30:17;97144.03;;;0.34;100.00
55289;BME280;41154;45.394;5.734;2023-04-05T03:32:57;97144.03;;;0.19;100.00
55289;BME280;41154;45.394;5.734;2023-04-05T03:35:35;97142.59;;;0.31;100.00
55289;BME280;41154;45.394;5.734;2023-04-05T03:38:02;97146.84;;;0.62;100.00
55289;BME280;41154;45.394;5.734;2023-04-05T03:40:29;97140.56;;;0.63;100.00
55289;BME280;41154;45.394;5.734;2023-04-05T03:42:55;97139.59;;;0.64;100.00
55289;BME280;41154;45.394;5.734;2023-04-05T03:45:21;97139.56;;;0.20;100.00
55289;BME280;41154;45.394;5.734;2023-04-05T03:47:47;97140.84;;;0.39;100.00
55289;BME280;41154;45.394;5.734;2023-04-05T03:50:13;97139.88;;;0.40;100.00
55289;BME280;41154;45.394;5.734;2023-04-05T03:52:38;97143.13;;;0.42;100.00
55289;BME280;41154;45.394;5.734;2023-04-05T03:55:05;97139.66;;;0.56;100.00
55289;BME280;41154;45.394;5.734;2023-04-05T03:57:33;97144.50;;;0.23;100.00
55289;BME280;41154;45.394;5.734;2023-04-05T04:00:08;97144.81;;;-0.10;100.00
55289;BME280;41154;45.394;5.734;2023-04-05T04:02:45;97141.81;;;-0.07;100.00
55289;BME280;41154;45.394;5.734;2023-04-05T04:05:15;97145.97;;;-0.13;100.00
55289;BME280;41154;45.394;5.734;2023-04-05T04:07:43;97148.88;;;-0.23;100.00
55289;BME280;41154;45.394;5.734;2023-04-05T04:10:12;97143.78;;;-0.24;100.00
55289;BME280;41154;45.394;5.734;2023-04-05T04:12:40;97140.16;;;-0.23;100.00
55289;BME280;41154;45.394;5.734;2023-04-05T04:15:07;97142.84;;;-0.31;100.00
55289;BME280;41154;45.394;5.734;2023-04-05T04:17:53;97148.53;;;-0.43;100.00
55289;BME280;41154;45.394;5.734;2023-04-05T04:20:28;97141.44;;;-0.42;100.00
55289;BME280;41154;45.394;5.734;2023-04-05T04:23:20;97140.72;;;-0.36;100.00
55289;BME280;41154;45.394;5.734;2023-04-05T04:26:14;97143.09;;;-0.41;100.00
55289;BME280;41154;45.394;5.734;2023-04-05T04:29:01;97146.19;;;-0.38;100.00
55289;BME280;41154;45.394;5.734;2023-04-05T04:31:47;97133.31;;;-0.32;100.00
55289;BME280;41154;45.394;5.734;2023-04-05T04:34:33;97126.03;;;-0.30;100.00
55289;BME280;41154;45.394;5.734;2023-04-05T04:37:25;97120.00;;;-0.39;100.00
55289;BME280;41154;45.394;5.734;2023-04-05T04:40:18;97121.31;;;-0.58;100.00
55289;BME280;41154;45.394;5.734;2023-04-05T04:43:11;97109.09;;;-0.36;100.00
55289;BME280;41154;45.394;5.734;2023-04-05T04:46:00;97121.06;;;-0.48;100.00
55289;BME280;41154;45.394;5.734;2023-04-05T04:48:38;97129.34;;;-0.75;100.00
55289;BME280;41154;45.394;5.734;2023-04-05T04:51:12;97135.66;;;-0.84;100.00
55289;BME280;41154;45.394;5.734;2023-04-05T04:53:38;97135.25;;;-0.73;100.00
55289;BME280;41154;45.394;5.734;2023-04-05T04:56:07;97139.81;;;-0.66;100.00
55289;BME280;41154;45.394;5.734;2023-04-05T04:58:33;97140.06;;;-0.76;100.00
55289;BME280;41154;45.394;5.734;2023-04-05T05:01:07;97141.13;;;-0.62;100.00
55289;BME280;41154;45.394;5.734;2023-04-05T05:03:34;97139.56;;;-0.57;100.00
55289;BME280;41154;45.394;5.734;2023-04-05T05:06:03;97148.13;;;-0.78;100.00
55289;BME280;41154;45.394;5.734;2023-04-05T05:08:31;97152.44;;;-0.85;100.00
55289;BME280;41154;45.394;5.734;2023-04-05T05:10:57;97153.78;;;-0.89;100.00
55289;BME280;41154;45.394;5.734;2023-04-05T05:13:23;97153.41;;;-0.78;100.00
55289;BME280;41154;45.394;5.734;2023-04-05T05:15:49;97164.56;;;-0.76;100.00
55289;BME280;41154;45.394;5.734;2023-04-05T05:18:14;97162.22;;;-0.70;100.00
55289;BME280;41154;45.394;5.734;2023-04-05T05:20:41;97166.16;;;-0.66;100.00
55289;BME280;41154;45.394;5.734;2023-04-05T05:23:07;97163.81;;;-0.61;100.00
55289;BME280;41154;45.394;5.734;2023-04-05T05:25:33;97173.06;;;-0.65;100.00
55289;BME280;41154;45.394;5.734;2023-04-05T05:27:58;97179.78;;;-0.63;100.00
55289;BME280;41154;45.394;5.734;2023-04-05T05:30:26;97182.16;;;-0.45;100.00
55289;BME280;41154;45.394;5.734;2023-04-05T05:32:52;97184.81;;;-0.30;100.00
55289;BME280;41154;45.394;5.734;2023-04-05T05:35:18;97182.22;;;-0.53;100.00
55289;BME280;41154;45.394;5.734;2023-04-05T05:37:44;97184.63;;;-0.43;100.00
55289;BME280;41154;45.394;5.734;2023-04-05T05:40:10;97204.22;;;-0.46;100.00
55289;BME280;41154;45.394;5.734;2023-04-05T05:42:40;97194.72;;;-0.55;100.00
55289;BME280;41154;45.394;5.734;2023-04-05T05:45:06;97200.66;;;-0.53;100.00
55289;BME280;41154;45.394;5.734;2023-04-05T05:47:32;97205.25;;;-0.55;100.00
55289;BME280;41154;45.394;5.734;2023-04-05T05:49:58;97191.81;;;-0.60;100.00
55289;BME280;41154;45.394;5.734;2023-04-05T05:52:24;97196.72;;;-0.57;100.00
55289;BME280;41154;45.394;5.734;2023-04-05T05:54:50;97206.28;;;-0.56;100.00
55289;BME280;41154;45.394;5.734;2023-04-05T05:57:15;97206.56;;;-0.51;100.00
55289;BME280;41154;45.394;5.734;2023-04-05T05:59:41;97205.94;;;-0.53;100.00
55289;BME280;41154;45.394;5.734;2023-04-05T06:02:07;97208.00;;;-0.71;100.00
55289;BME280;41154;45.394;5.734;2023-04-05T06:04:33;97209.69;;;-0.79;100.00
55289;BME280;41154;45.394;5.734;2023-04-05T06:06:59;97212.97;;;-0.77;100.00
55289;BME280;41154;45.394;5.734;2023-04-05T06:09:26;97223.91;;;-0.33;100.00
55289;BME280;41154;45.394;5.734;2023-04-05T06:11:53;97226.59;;;-0.42;100.00
55289;BME280;41154;45.394;5.734;2023-04-05T06:14:19;97221.34;;;-0.42;100.00
55289;BME280;41154;45.394;5.734;2023-04-05T06:16:45;97224.66;;;-0.48;100.00
55289;BME280;41154;45.394;5.734;2023-04-05T06:19:10;97225.72;;;-0.57;100.00
55289;BME280;41154;45.394;5.734;2023-04-05T06:21:37;97233.91;;;-0.52;100.00
55289;BME280;41154;45.394;5.734;2023-04-05T06:24:02;97234.16;;;-0.39;100.00
55289;BME280;41154;45.394;5.734;2023-04-05T06:26:28;97229.19;;;-0.33;100.00
55289;BME280;41154;45.394;5.734;2023-04-05T06:28:55;97239.59;;;-0.40;100.00
55289;BME280;41154;45.394;5.734;2023-04-05T06:31:31;97242.78;;;-0.22;100.00
55289;BME280;41154;45.394;5.734;2023-04-05T06:33:57;97247.19;;;-0.45;100.00
55289;BME280;41154;45.394;5.734;2023-04-05T06:36:23;97245.47;;;-0.53;100.00
55289;BME280;41154;45.394;5.734;2023-04-05T06:38:49;97241.66;;;-0.27;100.00
55289;BME280;41154;45.394;5.734;2023-04-05T06:41:15;97240.09;;;-0.13;100.00
55289;BME280;41154;45.394;5.734;2023-04-05T06:43:41;97239.13;;;0.03;100.00
55289;BME280;41154;45.394;5.734;2023-04-05T06:46:07;97234.19;;;2.50;100.00
55289;BME280;41154;45.394;5.734;2023-04-05T06:48:35;97223.94;;;6.46;100.00
55289;BME280;41154;45.394;5.734;2023-04-05T06:51:02;97219.22;;;8.86;84.87
55289;BME280;41154;45.394;5.734;2023-04-05T06:53:28;97212.88;;;10.43;73.73
55289;BME280;41154;45.394;5.734;2023-04-05T06:55:55;97212.47;;;9.48;75.96
55289;BME280;41154;45.394;5.734;2023-04-05T06:58:22;97215.03;;;8.78;81.37
55289;BME280;41154;45.394;5.734;2023-04-05T07:00:49;97207.69;;;9.50;76.77
55289;BME280;41154;45.394;5.734;2023-04-05T07:03:15;97208.72;;;10.06;75.35
55289;BME280;41154;45.394;5.734;2023-04-05T07:05:51;97194.34;;;11.86;66.24
55289;BME280;41154;45.394;5.734;2023-04-05T07:08:19;97195.47;;;12.92;61.67
55289;BME280;41154;45.394;5.734;2023-04-05T07:10:46;97187.84;;;14.11;56.45
55289;BME280;41154;45.394;5.734;2023-04-05T07:13:12;97186.50;;;14.29;54.42
55289;BME280;41154;45.394;5.734;2023-04-05T07:15:37;97185.72;;;14.23;52.90
55289;BME280;41154;45.394;5.734;2023-04-05T07:18:03;97191.09;;;14.13;53.85
55289;BME280;41154;45.394;5.734;2023-04-05T07:20:29;97186.25;;;14.41;49.86
55289;BME280;41154;45.394;5.734;2023-04-05T07:22:55;97186.94;;;13.69;53.59
55289;BME280;41154;45.394;5.734;2023-04-05T07:25:23;97188.25;;;13.56;53.08
55289;BME280;41154;45.394;5.734;2023-04-05T07:27:49;97185.44;;;14.50;53.84
55289;BME280;41154;45.394;5.734;2023-04-05T07:30:15;97190.03;;;14.45;51.30
55289;BME280;41154;45.394;5.734;2023-04-05T07:32:40;97186.81;;;14.68;48.75
55289;BME280;41154;45.394;5.734;2023-04-05T07:35:06;97197.06;;;14.61;49.02
55289;BME280;41154;45.394;5.734;2023-04-05T07:37:33;97201.38;;;14.42;48.78
55289;BME280;41154;45.394;5.734;2023-04-05T07:39:59;97200.81;;;14.50;49.23
55289;BME280;41154;45.394;5.734;2023-04-05T07:42:25;97201.38;;;14.57;50.86
55289;BME280;41154;45.394;5.734;2023-04-05T07:44:52;97195.97;;;14.57;51.14
55289;BME280;41154;45.394;5.734;2023-04-05T07:47:18;97193.19;;;15.14;48.17
55289;BME280;41154;45.394;5.734;2023-04-05T07:49:44;97195.44;;;14.81;48.70
55289;BME280;41154;45.394;5.734;2023-04-05T07:52:10;97196.06;;;15.38;46.59
55289;BME280;41154;45.394;5.734;2023-04-05T07:54:36;97192.19;;;14.48;49.00
55289;BME280;41154;45.394;5.734;2023-04-05T07:57:08;97190.75;;;13.68;50.88
55289;BME280;41154;45.394;5.734;2023-04-05T07:59:35;97193.19;;;15.24;47.45
55289;BME280;41154;45.394;5.734;2023-04-05T08:02:01;97199.19;;;14.49;51.13
55289;BME280;41154;45.394;5.734;2023-04-05T08:04:27;97188.63;;;13.86;50.44
55289;BME280;41154;45.394;5.734;2023-04-05T08:06:53;97187.47;;;15.91;46.88
55289;BME280;41154;45.394;5.734;2023-04-05T08:09:19;97192.88;;;16.65;41.02
55289;BME280;41154;45.394;5.734;2023-04-05T08:11:45;97193.31;;;15.58;45.05
55289;BME280;41154;45.394;5.734;2023-04-05T08:14:11;97192.75;;;16.51;44.46
55289;BME280;41154;45.394;5.734;2023-04-05T08:16:37;97191.06;;;14.95;51.64
55289;BME280;41154;45.394;5.734;2023-04-05T08:19:03;97188.25;;;15.41;49.50
55289;BME280;41154;45.394;5.734;2023-04-05T08:21:29;97181.75;;;16.37;43.50
55289;BME280;41154;45.394;5.734;2023-04-05T08:23:54;97188.50;;;18.14;39.26
55289;BME280;41154;45.394;5.734;2023-04-05T08:26:20;97195.88;;;16.63;41.95
55289;BME280;41154;45.394;5.734;2023-04-05T08:28:46;97190.56;;;14.67;45.33
55289;BME280;41154;45.394;5.734;2023-04-05T08:31:12;97181.81;;;15.27;43.46
55289;BME280;41154;45.394;5.734;2023-04-05T08:36:57;97183.81;;;16.50;40.30
55289;BME280;41154;45.394;5.734;2023-04-05T08:43:21;97179.97;;;15.02;43.10
55289;BME280;41154;45.394;5.734;2023-04-05T08:45:50;97185.97;;;14.42;44.11
55289;BME280;41154;45.394;5.734;2023-04-05T08:51:36;97183.28;;;14.73;41.45
55289;BME280;41154;45.394;5.734;2023-04-05T08:54:05;97179.84;;;16.38;38.21
55289;BME280;41154;45.394;5.734;2023-04-05T08:56:32;97176.50;;;14.96;44.84
55289;BME280;41154;45.394;5.734;2023-04-05T08:59:06;97168.94;;;14.93;45.07
55289;BME280;41154;45.394;5.734;2023-04-05T09:01:35;97172.44;;;14.83;45.88
55289;BME280;41154;45.394;5.734;2023-04-05T09:04:08;97182.09;;;15.86;44.71
55289;BME280;41154;45.394;5.734;2023-04-05T09:06:36;97176.81;;;15.55;40.51
55289;BME280;41154;45.394;5.734;2023-04-05T09:09:06;97178.97;;;14.31;43.95
55289;BME280;41154;45.394;5.734;2023-04-05T09:11:33;97173.88;;;16.70;41.81
55289;BME280;41154;45.394;5.734;2023-04-05T09:14:00;97178.72;;;15.54;43.03
55289;BME280;41154;45.394;5.734;2023-04-05T09:16:27;97185.34;;;16.62;41.84
55289;BME280;41154;45.394;5.734;2023-04-05T09:18:53;97191.09;;;14.33;43.60
55289;BME280;41154;45.394;5.734;2023-04-05T09:21:19;97194.00;;;11.82;48.08
55289;BME280;41154;45.394;5.734;2023-04-05T09:23:54;97202.75;;;10.67;50.15
55289;BME280;41154;45.394;5.734;2023-04-05T09:26:22;97198.69;;;11.21;51.74
55289;BME280;41154;45.394;5.734;2023-04-05T09:28:51;97191.44;;;11.43;53.26
55289;BME280;41154;45.394;5.734;2023-04-05T09:31:33;97194.19;;;10.87;51.13
55289;BME280;41154;45.394;5.734;2023-04-05T09:34:03;97193.03;;;11.66;49.06
55289;BME280;41154;45.394;5.734;2023-04-05T09:36:29;97198.97;;;10.63;53.76
55289;BME280;41154;45.394;5.734;2023-04-05T09:39:07;97196.66;;;10.72;51.69
55289;BME280;41154;45.394;5.734;2023-04-05T09:41:34;97203.34;;;10.35;54.84
55289;BME280;41154;45.394;5.734;2023-04-05T09:44:02;97204.44;;;10.05;54.71
55289;BME280;41154;45.394;5.734;2023-04-05T09:46:31;97196.25;;;10.97;53.64
55289;BME280;41154;45.394;5.734;2023-04-05T09:48:59;97189.25;;;10.79;54.68
55289;BME280;41154;45.394;5.734;2023-04-05T09:51:36;97192.72;;;9.95;56.94
55289;BME280;41154;45.394;5.734;2023-04-05T09:54:06;97188.38;;;10.22;58.62
55289;BME280;41154;45.394;5.734;2023-04-05T09:56:38;97183.59;;;9.79;55.63
55289;BME280;41154;45.394;5.734;2023-04-05T09:59:08;97183.28;;;9.92;54.29
55289;BME280;41154;45.394;5.734;2023-04-05T10:01:38;97182.19;;;9.07;57.24
55289;BME280;41154;45.394;5.734;2023-04-05T10:04:07;97176.50;;;9.15;58.98
55289;BME280;41154;45.394;5.734;2023-04-05T10:06:36;97172.38;;;9.65;57.67
55289;BME280;41154;45.394;5.734;2023-04-05T10:09:03;97162.94;;;9.62;59.42
55289;BME280;41154;45.394;5.734;2023-04-05T10:11:31;97162.75;;;9.52;57.79
55289;BME280;41154;45.394;5.734;2023-04-05T10:13:59;97166.00;;;9.54;62.24
55289;BME280;41154;45.394;5.734;2023-04-05T10:16:27;97155.22;;;10.12;57.22
55289;BME280;41154;45.394;5.734;2023-04-05T10:18:54;97161.38;;;10.12;57.80
55289;BME280;41154;45.394;5.734;2023-04-05T10:21:22;97162.84;;;10.20;67.72
55289;BME280;41154;45.394;5.734;2023-04-05T10:24:01;97163.28;;;9.25;56.48
55289;BME280;41154;45.394;5.734;2023-04-05T10:26:59;97154.22;;;9.84;58.47
55289;BME280;41154;45.394;5.734;2023-04-05T10:29:45;97143.44;;;10.13;70.38
55289;BME280;41154;45.394;5.734;2023-04-05T10:35:30;97156.69;;;10.19;65.80
55289;BME280;41154;45.394;5.734;2023-04-05T10:38:11;97153.25;;;9.90;53.41
55289;BME280;41154;45.394;5.734;2023-04-05T10:40:36;97149.06;;;9.94;59.87
55289;BME280;41154;45.394;5.734;2023-04-05T10:43:07;97141.84;;;9.66;57.08
55289;BME280;41154;45.394;5.734;2023-04-05T10:45:40;97139.75;;;10.70;60.42
55289;BME280;41154;45.394;5.734;2023-04-05T10:51:14;97149.41;;;9.69;56.39
55289;BME280;41154;45.394;5.734;2023-04-05T10:53:40;97148.81;;;9.96;54.45
55289;BME280;41154;45.394;5.734;2023-04-05T10:56:07;97142.53;;;9.90;61.06
55289;BME280;41154;45.394;5.734;2023-04-05T10:58:34;97144.19;;;9.91;59.84
55289;BME280;41154;45.394;5.734;2023-04-05T11:01:01;97147.38;;;9.18;59.86
55289;BME280;41154;45.394;5.734;2023-04-05T11:03:45;97156.81;;;9.79;56.44
55289;BME280;41154;45.394;5.734;2023-04-05T11:06:18;97154.22;;;9.84;58.21
55289;BME280;41154;45.394;5.734;2023-04-05T11:08:46;97146.38;;;9.65;62.65
55289;BME280;41154;45.394;5.734;2023-04-05T11:11:17;97153.72;;;9.70;62.20
55289;BME280;41154;45.394;5.734;2023-04-05T11:13:56;97159.19;;;9.92;63.99
55289;BME280;41154;45.394;5.734;2023-04-05T11:16:36;97148.34;;;9.12;62.42
55289;BME280;41154;45.394;5.734;2023-04-05T11:19:02;97146.44;;;9.25;65.72
55289;BME280;41154;45.394;5.734;2023-04-05T11:21:30;97148.56;;;9.11;68.69
55289;BME280;41154;45.394;5.734;2023-04-05T11:24:09;97140.53;;;9.11;68.58
55289;BME280;41154;45.394;5.734;2023-04-05T11:29:05;97147.25;;;9.25;67.37
55289;BME280;41154;45.394;5.734;2023-04-05T11:31:31;97154.81;;;8.76;66.73
55289;BME280;41154;45.394;5.734;2023-04-05T11:34:03;97156.44;;;8.53;66.91
55289;BME280;41154;45.394;5.734;2023-04-05T11:36:43;97151.28;;;8.87;63.47
55289;BME280;41154;45.394;5.734;2023-04-05T11:42:04;97147.19;;;9.66;61.59
55289;BME280;41154;45.394;5.734;2023-04-05T11:44:49;97136.13;;;9.74;65.13
55289;BME280;41154;45.394;5.734;2023-04-05T11:47:18;97144.00;;;9.52;62.10
55289;BME280;41154;45.394;5.734;2023-04-05T11:49:49;97134.63;;;9.38;63.14
55289;BME280;41154;45.394;5.734;2023-04-05T11:52:16;97147.72;;;9.22;63.20
55289;BME280;41154;45.394;5.734;2023-04-05T11:54:43;97161.22;;;9.27;61.45
55289;BME280;41154;45.394;5.734;2023-04-05T11:57:19;97138.13;;;9.67;60.39
55289;BME280;41154;45.394;5.734;2023-04-05T11:59:45;97137.31;;;8.97;59.37
55289;BME280;41154;45.394;5.734;2023-04-05T12:02:12;97143.03;;;9.29;61.93
55289;BME280;41154;45.394;5.734;2023-04-05T12:04:38;97139.59;;;9.17;60.66
55289;BME280;41154;45.394;5.734;2023-04-05T12:07:12;97147.03;;;9.56;61.35
55289;BME280;41154;45.394;5.734;2023-04-05T12:09:57;97140.66;;;9.45;61.44
55289;BME280;41154;45.394;5.734;2023-04-05T12:12:23;97145.91;;;9.68;59.96
55289;BME280;41154;45.394;5.734;2023-04-05T12:14:48;97141.84;;;9.66;59.79
55289;BME280;41154;45.394;5.734;2023-04-05T12:17:14;97141.22;;;9.47;62.65
55289;BME280;41154;45.394;5.734;2023-04-05T12:19:41;97136.59;;;9.42;58.96
55289;BME280;41154;45.394;5.734;2023-04-05T12:22:07;97142.41;;;9.39;59.52
55289;BME280;41154;45.394;5.734;2023-04-05T12:24:32;97138.78;;;9.45;59.66
55289;BME280;41154;45.394;5.734;2023-04-05T12:26:59;97140.25;;;9.82;59.54
55289;BME280;41154;45.394;5.734;2023-04-05T12:29:25;97143.91;;;9.47;58.91
55289;BME280;41154;45.394;5.734;2023-04-05T12:31:51;97137.22;;;9.78;56.97
55289;BME280;41154;45.394;5.734;2023-04-05T12:34:23;97144.06;;;9.86;56.37
55289;BME280;41154;45.394;5.734;2023-04-05T12:36:50;97146.19;;;9.84;61.08
55289;BME280;41154;45.394;5.734;2023-04-05T12:39:16;97136.72;;;9.64;64.07
55289;BME280;41154;45.394;5.734;2023-04-05T12:41:42;97139.75;;;9.39;60.49
55289;BME280;41154;45.394;5.734;2023-04-05T12:44:14;97141.78;;;9.49;62.74
55289;BME280;41154;45.394;5.734;2023-04-05T12:46:47;97146.78;;;9.57;62.05
55289;BME280;41154;45.394;5.734;2023-04-05T12:49:17;97143.66;;;9.48;60.97
55289;BME280;41154;45.394;5.734;2023-04-05T12:51:47;97132.56;;;9.85;65.30
55289;BME280;41154;45.394;5.734;2023-04-05T12:54:22;97134.13;;;9.52;63.73
55289;BME280;41154;45.394;5.734;2023-04-05T12:56:57;97129.78;;;9.80;59.08
55289;BME280;41154;45.394;5.734;2023-04-05T12:59:23;97136.31;;;9.56;59.51
55289;BME280;41154;45.394;5.734;2023-04-05T13:01:52;97132.13;;;9.77;60.18
55289;BME280;41154;45.394;5.734;2023-04-05T13:04:17;97135.88;;;9.76;60.14
55289;BME280;41154;45.394;5.734;2023-04-05T13:06:44;97126.00;;;10.10;58.10
55289;BME280;41154;45.394;5.734;2023-04-05T13:09:11;97136.78;;;9.98;58.17
55289;BME280;41154;45.394;5.734;2023-04-05T13:11:37;97132.94;;;9.77;58.76
55289;BME280;41154;45.394;5.734;2023-04-05T13:14:03;97129.69;;;9.75;60.22
55289;BME280;41154;45.394;5.734;2023-04-05T13:16:28;97126.34;;;9.39;58.32
55289;BME280;41154;45.394;5.734;2023-04-05T13:18:54;97126.56;;;9.49;57.04
55289;BME280;41154;45.394;5.734;2023-04-05T13:21:20;97120.91;;;9.80;59.04
55289;BME280;41154;45.394;5.734;2023-04-05T13:23:45;97124.53;;;10.02;61.96
55289;BME280;41154;45.394;5.734;2023-04-05T13:26:11;97123.31;;;9.93;59.97
55289;BME280;41154;45.394;5.734;2023-04-05T13:28:37;97126.63;;;9.83;59.72
55289;BME280;41154;45.394;5.734;2023-04-05T13:31:03;97113.72;;;9.97;58.42
55289;BME280;41154;45.394;5.734;2023-04-05T13:33:30;97114.44;;;10.10;59.64
55289;BME280;41154;45.394;5.734;2023-04-05T13:35:57;97115.91;;;10.17;59.72
55289;BME280;41154;45.394;5.734;2023-04-05T13:38:23;97110.03;;;10.03;59.15
55289;BME280;41154;45.394;5.734;2023-04-05T13:40:48;97105.22;;;10.00;62.43
55289;BME280;41154;45.394;5.734;2023-04-05T13:43:14;97111.66;;;9.70;59.72
55289;BME280;41154;45.394;5.734;2023-04-05T13:45:40;97107.56;;;9.51;61.72